sensor_id;sensor_type;location;lat;lon;timestamp;temperature;humidity
27306;DHT22;14792;50.886;6.468;2023-11-21T00:01:37;8.20;99.90
27306;DHT22;14792;50.886;6.468;2023-11-21T00:04:38;8.20;99.90
27306;DHT22;14792;50.886;6.468;2023-11-21T00:07:40;8.20;99.90
27306;DHT22;14792;50.886;6.468;2023-11-21T00:10:41;8.20;99.90
27306;DHT22;14792;50.886;6.468;2023-11-21T00:13:43;8.20;99.90
27306;DHT22;14792;50.886;6.468;2023-11-21T00:16:44;8.20;99.90
27306;DHT22;14792;50.886;6.468;2023-11-21T00:19:46;8.20;99.90
27306;DHT22;14792;50.886;6.468;2023-11-21T00:22:48;8.20;99.90
27306;DHT22;14792;50.886;6.468;2023-11-21T00:25:49;8.20;99.90
27306;DHT22;14792;50.886;6.468;2023-11-21T00:28:51;8.10;99.90
27306;DHT22;14792;50.886;6.468;2023-11-21T00:31:53;8.10;99.90
27306;DHT22;14792;50.886;6.468;2023-11-21T00:34:54;8.20;99.90
27306;DHT22;14792;50.886;6.468;2023-11-21T00:37:56;8.20;99.90
27306;DHT22;14792;50.886;6.468;2023-11-21T00:40:57;8.20;99.90
27306;DHT22;14792;50.886;6.468;2023-11-21T00:43:59;8.20;99.90
27306;DHT22;14792;50.886;6.468;2023-11-21T00:47:00;8.20;99.90
27306;DHT22;14792;50.886;6.468;2023-11-21T00:50:02;8.20;99.90
27306;DHT22;14792;50.886;6.468;2023-11-21T00:53:04;8.30;99.90
27306;DHT22;14792;50.886;6.468;2023-11-21T00:56:05;8.30;99.90
27306;DHT22;14792;50.886;6.468;2023-11-21T00:59:07;8.30;99.90
27306;DHT22;14792;50.886;6.468;2023-11-21T01:02:08;8.30;99.90
27306;DHT22;14792;50.886;6.468;2023-11-21T01:05:10;8.30;99.90
27306;DHT22;14792;50.886;6.468;2023-11-21T01:08:12;8.20;99.90
27306;DHT22;14792;50.886;6.468;2023-11-21T01:11:13;8.20;99.90
27306;DHT22;14792;50.886;6.468;2023-11-21T01:14:15;8.20;99.90
27306;DHT22;14792;50.886;6.468;2023-11-21T01:17:16;8.20;99.90
27306;DHT22;14792;50.886;6.468;2023-11-21T01:20:18;8.20;99.90
27306;DHT22;14792;50.886;6.468;2023-11-21T01:23:20;8.20;99.90
27306;DHT22;14792;50.886;6.468;2023-11-21T01:26:21;8.20;99.90
27306;DHT22;14792;50.886;6.468;2023-11-21T01:29:23;8.20;99.90
27306;DHT22;14792;50.886;6.468;2023-11-21T01:32:25;8.20;99.90
27306;DHT22;14792;50.886;6.468;2023-11-21T01:35:26;8.10;99.90
27306;DHT22;14792;50.886;6.468;2023-11-21T01:38:28;8.10;99.90
27306;DHT22;14792;50.886;6.468;2023-11-21T01:41:30;8.10;99.90
27306;DHT22;14792;50.886;6.468;2023-11-21T01:44:31;8.10;99.90
27306;DHT22;14792;50.886;6.468;2023-11-21T01:47:33;8.10;99.90
27306;DHT22;14792;50.886;6.468;2023-11-21T01:50:34;8.10;99.90
27306;DHT22;14792;50.886;6.468;2023-11-21T01:53:36;8.10;99.90
27306;DHT22;14792;50.886;6.468;2023-11-21T01:56:38;8.10;99.90
27306;DHT22;14792;50.886;6.468;2023-11-21T01:59:39;8.10;99.90
27306;DHT22;14792;50.886;6.468;2023-11-21T02:02:44;8.10;99.90
27306;DHT22;14792;50.886;6.468;2023-11-21T02:05:45;8.10;99.90
27306;DHT22;14792;50.886;6.468;2023-11-21T02:08:47;8.10;99.90
27306;DHT22;14792;50.886;6.468;2023-11-21T02:11:48;8.10;99.90
27306;DHT22;14792;50.886;6.468;2023-11-21T02:14:53;8.10;99.90
27306;DHT22;14792;50.886;6.468;2023-11-21T02:17:55;8.10;99.90
27306;DHT22;14792;50.886;6.468;2023-11-21T02:20:56;8.10;99.90
27306;DHT22;14792;50.886;6.468;2023-11-21T02:23:58;8.10;99.90
27306;DHT22;14792;50.886;6.468;2023-11-21T02:27:06;8.10;99.90
27306;DHT22;14792;50.886;6.468;2023-11-21T02:30:04;8.20;99.90
27306;DHT22;14792;50.886;6.468;2023-11-21T02:33:06;8.20;99.90
27306;DHT22;14792;50.886;6.468;2023-11-21T02:36:08;8.20;99.90
27306;DHT22;14792;50.886;6.468;2023-11-21T02:39:10;8.20;99.90
27306;DHT22;14792;50.886;6.468;2023-11-21T02:42:11;8.20;99.90
27306;DHT22;14792;50.886;6.468;2023-11-21T02:45:15;8.20;99.90
27306;DHT22;14792;50.886;6.468;2023-11-21T02:48:21;8.20;99.90
27306;DHT22;14792;50.886;6.468;2023-11-21T02:51:22;8.20;99.90
27306;DHT22;14792;50.886;6.468;2023-11-21T02:54:24;8.20;99.90
27306;DHT22;14792;50.886;6.468;2023-11-21T02:57:25;8.20;99.90
27306;DHT22;14792;50.886;6.468;2023-11-21T03:00:27;8.20;99.90
27306;DHT22;14792;50.886;6.468;2023-11-21T03:03:29;8.20;99.90
27306;DHT22;14792;50.886;6.468;2023-11-21T03:06:30;8.30;99.90
27306;DHT22;14792;50.886;6.468;2023-11-21T03:09:32;8.20;99.90
27306;DHT22;14792;50.886;6.468;2023-11-21T03:12:33;8.20;99.90
27306;DHT22;14792;50.886;6.468;2023-11-21T03:15:35;8.20;99.90
27306;DHT22;14792;50.886;6.468;2023-11-21T03:18:39;8.20;99.90
27306;DHT22;14792;50.886;6.468;2023-11-21T03:21:41;8.20;99.90
27306;DHT22;14792;50.886;6.468;2023-11-21T03:24:42;8.20;99.90
27306;DHT22;14792;50.886;6.468;2023-11-21T03:27:44;8.30;99.90
27306;DHT22;14792;50.886;6.468;2023-11-21T03:30:45;8.30;99.90
27306;DHT22;14792;50.886;6.468;2023-11-21T03:33:47;8.20;99.90
27306;DHT22;14792;50.886;6.468;2023-11-21T03:36:49;8.20;99.90
27306;DHT22;14792;50.886;6.468;2023-11-21T03:39:50;8.20;99.90
27306;DHT22;14792;50.886;6.468;2023-11-21T03:42:52;8.20;99.90
27306;DHT22;14792;50.886;6.468;2023-11-21T03:45:53;8.20;99.90
27306;DHT22;14792;50.886;6.468;2023-11-21T03:48:55;8.20;99.90
27306;DHT22;14792;50.886;6.468;2023-11-21T03:51:57;8.20;99.90
27306;DHT22;14792;50.886;6.468;2023-11-21T03:54:58;8.20;99.90
27306;DHT22;14792;50.886;6.468;2023-11-21T03:58:00;8.20;99.90
27306;DHT22;14792;50.886;6.468;2023-11-21T04:01:01;8.20;99.90
27306;DHT22;14792;50.886;6.468;2023-11-21T04:04:03;8.20;99.90
27306;DHT22;14792;50.886;6.468;2023-11-21T04:07:05;8.30;99.90
27306;DHT22;14792;50.886;6.468;2023-11-21T04:10:07;8.20;99.90
27306;DHT22;14792;50.886;6.468;2023-11-21T04:13:08;8.20;99.90
27306;DHT22;14792;50.886;6.468;2023-11-21T04:16:09;8.20;99.90
27306;DHT22;14792;50.886;6.468;2023-11-21T04:19:32;8.30;99.90
27306;DHT22;14792;50.886;6.468;2023-11-21T04:22:22;8.30;99.90
27306;DHT22;14792;50.886;6.468;2023-11-21T04:25:22;8.20;99.90
27306;DHT22;14792;50.886;6.468;2023-11-21T04:28:39;8.30;99.90
27306;DHT22;14792;50.886;6.468;2023-11-21T04:41:33;8.30;99.90
27306;DHT22;14792;50.886;6.468;2023-11-21T04:48:52;8.10;99.90
27306;DHT22;14792;50.886;6.468;2023-11-21T04:55:23;8.30;99.90
27306;DHT22;14792;50.886;6.468;2023-11-21T04:58:24;8.30;99.90
27306;DHT22;14792;50.886;6.468;2023-11-21T05:01:26;8.20;99.90
27306;DHT22;14792;50.886;6.468;2023-11-21T05:04:27;8.20;99.90
27306;DHT22;14792;50.886;6.468;2023-11-21T05:07:29;8.20;99.90
27306;DHT22;14792;50.886;6.468;2023-11-21T05:10:47;8.20;99.90
27306;DHT22;14792;50.886;6.468;2023-11-21T05:13:40;8.20;99.90
27306;DHT22;14792;50.886;6.468;2023-11-21T05:17:03;8.20;99.90
27306;DHT22;14792;50.886;6.468;2023-11-21T05:19:53;8.20;99.90
27306;DHT22;14792;50.886;6.468;2023-11-21T05:26:23;8.20;99.90
27306;DHT22;14792;50.886;6.468;2023-11-21T05:29:24;8.20;99.90
27306;DHT22;14792;50.886;6.468;2023-11-21T05:32:26;8.20;99.90
27306;DHT22;14792;50.886;6.468;2023-11-21T05:35:28;8.10;99.90
27306;DHT22;14792;50.886;6.468;2023-11-21T05:38:29;8.20;99.90
27306;DHT22;14792;50.886;6.468;2023-11-21T05:41:31;8.20;99.90
27306;DHT22;14792;50.886;6.468;2023-11-21T05:44:32;8.30;99.90
27306;DHT22;14792;50.886;6.468;2023-11-21T05:47:35;8.30;99.90
27306;DHT22;14792;50.886;6.468;2023-11-21T05:50:36;8.30;99.90
27306;DHT22;14792;50.886;6.468;2023-11-21T05:53:37;8.30;99.90
27306;DHT22;14792;50.886;6.468;2023-11-21T05:56:39;8.30;99.90
27306;DHT22;14792;50.886;6.468;2023-11-21T05:59:40;8.30;99.90
27306;DHT22;14792;50.886;6.468;2023-11-21T06:02:42;8.30;99.90
27306;DHT22;14792;50.886;6.468;2023-11-21T06:05:44;8.30;99.90
27306;DHT22;14792;50.886;6.468;2023-11-21T06:08:45;8.30;99.90
27306;DHT22;14792;50.886;6.468;2023-11-21T06:11:47;8.40;99.90
27306;DHT22;14792;50.886;6.468;2023-11-21T06:14:48;8.30;99.90
27306;DHT22;14792;50.886;6.468;2023-11-21T06:17:52;8.40;99.90
27306;DHT22;14792;50.886;6.468;2023-11-21T06:20:54;8.40;99.90
27306;DHT22;14792;50.886;6.468;2023-11-21T06:23:56;8.40;99.90
27306;DHT22;14792;50.886;6.468;2023-11-21T06:26:57;8.40;99.90
27306;DHT22;14792;50.886;6.468;2023-11-21T06:33:06;8.40;99.90
27306;DHT22;14792;50.886;6.468;2023-11-21T06:36:07;8.40;99.90
27306;DHT22;14792;50.886;6.468;2023-11-21T06:39:09;8.50;99.90
27306;DHT22;14792;50.886;6.468;2023-11-21T06:42:11;8.50;99.90
27306;DHT22;14792;50.886;6.468;2023-11-21T06:45:12;8.50;99.90
27306;DHT22;14792;50.886;6.468;2023-11-21T06:48:14;8.50;99.90
27306;DHT22;14792;50.886;6.468;2023-11-21T06:51:15;8.50;99.90
27306;DHT22;14792;50.886;6.468;2023-11-21T06:54:17;8.50;99.90
27306;DHT22;14792;50.886;6.468;2023-11-21T06:57:19;8.50;99.90
27306;DHT22;14792;50.886;6.468;2023-11-21T07:00:21;8.50;99.90
27306;DHT22;14792;50.886;6.468;2023-11-21T07:03:23;8.50;99.90
27306;DHT22;14792;50.886;6.468;2023-11-21T07:06:24;8.50;99.90
27306;DHT22;14792;50.886;6.468;2023-11-21T07:09:26;8.50;99.90
27306;DHT22;14792;50.886;6.468;2023-11-21T07:12:27;8.50;99.90
27306;DHT22;14792;50.886;6.468;2023-11-21T07:15:29;8.50;99.90
27306;DHT22;14792;50.886;6.468;2023-11-21T07:18:31;8.50;99.90
27306;DHT22;14792;50.886;6.468;2023-11-21T07:22:18;8.50;99.90
27306;DHT22;14792;50.886;6.468;2023-11-21T07:28:14;8.50;99.90
27306;DHT22;14792;50.886;6.468;2023-11-21T07:31:15;8.50;99.90
27306;DHT22;14792;50.886;6.468;2023-11-21T07:34:46;8.50;99.90
27306;DHT22;14792;50.886;6.468;2023-11-21T07:41:21;8.60;99.90
27306;DHT22;14792;50.886;6.468;2023-11-21T07:44:29;8.60;99.90
27306;DHT22;14792;50.886;6.468;2023-11-21T07:58:02;8.70;99.90
27306;DHT22;14792;50.886;6.468;2023-11-21T08:01:04;8.60;99.90
27306;DHT22;14792;50.886;6.468;2023-11-21T08:04:05;8.70;99.90
27306;DHT22;14792;50.886;6.468;2023-11-21T08:07:07;8.70;99.90
27306;DHT22;14792;50.886;6.468;2023-11-21T08:10:09;8.70;99.90
27306;DHT22;14792;50.886;6.468;2023-11-21T08:13:10;8.70;99.90
27306;DHT22;14792;50.886;6.468;2023-11-21T08:16:12;8.80;99.90
27306;DHT22;14792;50.886;6.468;2023-11-21T08:19:13;8.80;99.90
27306;DHT22;14792;50.886;6.468;2023-11-21T08:22:15;8.80;99.90
27306;DHT22;14792;50.886;6.468;2023-11-21T08:25:17;8.80;99.90
27306;DHT22;14792;50.886;6.468;2023-11-21T08:28:18;8.80;99.90
27306;DHT22;14792;50.886;6.468;2023-11-21T08:31:26;8.90;99.90
27306;DHT22;14792;50.886;6.468;2023-11-21T08:34:27;8.80;99.90
27306;DHT22;14792;50.886;6.468;2023-11-21T08:37:29;8.90;99.90
27306;DHT22;14792;50.886;6.468;2023-11-21T08:40:30;8.90;99.90
27306;DHT22;14792;50.886;6.468;2023-11-21T08:43:32;8.80;99.90
27306;DHT22;14792;50.886;6.468;2023-11-21T08:46:33;8.80;99.90
27306;DHT22;14792;50.886;6.468;2023-11-21T08:49:35;8.90;99.90
27306;DHT22;14792;50.886;6.468;2023-11-21T08:52:37;8.90;99.90
27306;DHT22;14792;50.886;6.468;2023-11-21T08:55:38;8.90;99.90
27306;DHT22;14792;50.886;6.468;2023-11-21T08:58:40;9.00;99.90
27306;DHT22;14792;50.886;6.468;2023-11-21T09:01:41;9.00;99.90
27306;DHT22;14792;50.886;6.468;2023-11-21T09:04:43;9.00;99.90
27306;DHT22;14792;50.886;6.468;2023-11-21T09:07:45;9.00;99.90
27306;DHT22;14792;50.886;6.468;2023-11-21T09:10:46;9.00;99.90
27306;DHT22;14792;50.886;6.468;2023-11-21T09:13:48;9.10;99.90
27306;DHT22;14792;50.886;6.468;2023-11-21T09:16:49;9.10;99.90
27306;DHT22;14792;50.886;6.468;2023-11-21T09:19:51;9.20;99.90
27306;DHT22;14792;50.886;6.468;2023-11-21T09:22:53;9.20;99.90
27306;DHT22;14792;50.886;6.468;2023-11-21T09:25:54;9.30;99.90
27306;DHT22;14792;50.886;6.468;2023-11-21T09:28:56;9.30;99.90
27306;DHT22;14792;50.886;6.468;2023-11-21T09:31:57;9.30;99.90
27306;DHT22;14792;50.886;6.468;2023-11-21T09:35:02;9.30;99.90
27306;DHT22;14792;50.886;6.468;2023-11-21T09:38:04;9.30;99.90
27306;DHT22;14792;50.886;6.468;2023-11-21T09:41:05;9.30;99.90
27306;DHT22;14792;50.886;6.468;2023-11-21T09:44:07;9.30;99.90
27306;DHT22;14792;50.886;6.468;2023-11-21T09:47:09;9.30;99.90
27306;DHT22;14792;50.886;6.468;2023-11-21T09:50:10;9.30;99.90
27306;DHT22;14792;50.886;6.468;2023-11-21T09:53:17;9.30;99.90
27306;DHT22;14792;50.886;6.468;2023-11-21T09:56:18;9.40;99.90
27306;DHT22;14792;50.886;6.468;2023-11-21T09:59:21;9.40;99.90
27306;DHT22;14792;50.886;6.468;2023-11-21T10:02:24;9.40;99.90
27306;DHT22;14792;50.886;6.468;2023-11-21T10:05:25;9.50;99.90
27306;DHT22;14792;50.886;6.468;2023-11-21T10:08:26;9.60;99.90
27306;DHT22;14792;50.886;6.468;2023-11-21T10:11:28;9.70;99.90
27306;DHT22;14792;50.886;6.468;2023-11-21T10:14:29;9.80;99.90
27306;DHT22;14792;50.886;6.468;2023-11-21T10:17:31;9.80;99.90
27306;DHT22;14792;50.886;6.468;2023-11-21T10:20:33;9.90;99.90
27306;DHT22;14792;50.886;6.468;2023-11-21T10:23:37;9.90;99.90
27306;DHT22;14792;50.886;6.468;2023-11-21T10:26:38;10.10;99.90
27306;DHT22;14792;50.886;6.468;2023-11-21T10:29:40;10.20;99.90
27306;DHT22;14792;50.886;6.468;2023-11-21T10:32:42;10.30;99.90
27306;DHT22;14792;50.886;6.468;2023-11-21T10:35:47;10.30;99.90
27306;DHT22;14792;50.886;6.468;2023-11-21T10:38:48;10.40;99.90
27306;DHT22;14792;50.886;6.468;2023-11-21T10:41:49;10.40;99.90
27306;DHT22;14792;50.886;6.468;2023-11-21T10:44:51;10.40;99.90
27306;DHT22;14792;50.886;6.468;2023-11-21T10:47:53;10.50;99.90
27306;DHT22;14792;50.886;6.468;2023-11-21T10:50:55;10.50;99.90
27306;DHT22;14792;50.886;6.468;2023-11-21T10:53:56;10.40;99.90
27306;DHT22;14792;50.886;6.468;2023-11-21T10:56:58;10.40;99.90
27306;DHT22;14792;50.886;6.468;2023-11-21T10:59:59;10.50;99.90
27306;DHT22;14792;50.886;6.468;2023-11-21T11:03:01;10.60;99.90
27306;DHT22;14792;50.886;6.468;2023-11-21T11:06:03;10.60;99.90
27306;DHT22;14792;50.886;6.468;2023-11-21T11:09:04;10.70;99.90
27306;DHT22;14792;50.886;6.468;2023-11-21T11:12:06;10.60;99.90
27306;DHT22;14792;50.886;6.468;2023-11-21T11:15:08;10.60;99.90
27306;DHT22;14792;50.886;6.468;2023-11-21T11:18:09;10.60;99.90
27306;DHT22;14792;50.886;6.468;2023-11-21T11:21:23;10.70;99.90
27306;DHT22;14792;50.886;6.468;2023-11-21T11:25:24;10.80;99.90
27306;DHT22;14792;50.886;6.468;2023-11-21T11:27:40;10.80;99.90
27306;DHT22;14792;50.886;6.468;2023-11-21T11:33:50;10.90;99.90
27306;DHT22;14792;50.886;6.468;2023-11-21T11:37:03;10.80;99.90
27306;DHT22;14792;50.886;6.468;2023-11-21T11:40:07;10.80;99.90
27306;DHT22;14792;50.886;6.468;2023-11-21T11:43:14;10.80;99.90
27306;DHT22;14792;50.886;6.468;2023-11-21T11:46:13;10.80;99.90
27306;DHT22;14792;50.886;6.468;2023-11-21T11:49:26;10.90;99.90
27306;DHT22;14792;50.886;6.468;2023-11-21T11:52:40;10.90;99.90
27306;DHT22;14792;50.886;6.468;2023-11-21T11:55:38;10.90;99.90
27306;DHT22;14792;50.886;6.468;2023-11-21T11:58:40;10.90;99.90
27306;DHT22;14792;50.886;6.468;2023-11-21T12:01:44;10.90;99.90
27306;DHT22;14792;50.886;6.468;2023-11-21T12:04:43;11.00;99.90
27306;DHT22;14792;50.886;6.468;2023-11-21T12:07:48;11.10;99.90
27306;DHT22;14792;50.886;6.468;2023-11-21T12:10:49;11.20;99.90
27306;DHT22;14792;50.886;6.468;2023-11-21T12:13:52;11.10;99.90
27306;DHT22;14792;50.886;6.468;2023-11-21T12:16:53;11.10;99.90
27306;DHT22;14792;50.886;6.468;2023-11-21T12:20:00;11.10;99.90
27306;DHT22;14792;50.886;6.468;2023-11-21T12:22:57;11.10;99.90
27306;DHT22;14792;50.886;6.468;2023-11-21T12:25:58;11.00;99.90
27306;DHT22;14792;50.886;6.468;2023-11-21T12:28:59;11.00;99.90
27306;DHT22;14792;50.886;6.468;2023-11-21T12:32:01;11.00;99.90
27306;DHT22;14792;50.886;6.468;2023-11-21T12:35:05;11.00;99.90
27306;DHT22;14792;50.886;6.468;2023-11-21T12:38:07;10.90;99.90
27306;DHT22;14792;50.886;6.468;2023-11-21T12:41:11;10.80;99.90
27306;DHT22;14792;50.886;6.468;2023-11-21T12:44:13;10.80;99.90
27306;DHT22;14792;50.886;6.468;2023-11-21T12:47:16;10.80;99.90
27306;DHT22;14792;50.886;6.468;2023-11-21T12:50:26;11.00;99.90
27306;DHT22;14792;50.886;6.468;2023-11-21T12:53:27;11.20;99.90
27306;DHT22;14792;50.886;6.468;2023-11-21T12:56:28;11.30;99.90
27306;DHT22;14792;50.886;6.468;2023-11-21T12:59:31;11.50;99.90
27306;DHT22;14792;50.886;6.468;2023-11-21T13:02:31;11.40;99.90
27306;DHT22;14792;50.886;6.468;2023-11-21T13:05:34;11.40;99.90
27306;DHT22;14792;50.886;6.468;2023-11-21T13:08:35;11.40;99.90
27306;DHT22;14792;50.886;6.468;2023-11-21T13:11:39;11.30;99.90
27306;DHT22;14792;50.886;6.468;2023-11-21T13:14:39;11.30;99.90
27306;DHT22;14792;50.886;6.468;2023-11-21T13:17:39;11.30;99.90
27306;DHT22;14792;50.886;6.468;2023-11-21T13:20:41;11.30;99.90
27306;DHT22;14792;50.886;6.468;2023-11-21T13:23:45;11.30;99.90
27306;DHT22;14792;50.886;6.468;2023-11-21T13:26:44;11.30;99.90
27306;DHT22;14792;50.886;6.468;2023-11-21T13:29:46;11.30;99.90
27306;DHT22;14792;50.886;6.468;2023-11-21T13:32:47;11.30;99.90
27306;DHT22;14792;50.886;6.468;2023-11-21T13:35:49;11.30;99.90
27306;DHT22;14792;50.886;6.468;2023-11-21T13:38:53;11.20;99.90
27306;DHT22;14792;50.886;6.468;2023-11-21T13:41:54;11.10;99.90
27306;DHT22;14792;50.886;6.468;2023-11-21T13:44:58;11.00;99.90
27306;DHT22;14792;50.886;6.468;2023-11-21T13:48:00;11.20;99.90
27306;DHT22;14792;50.886;6.468;2023-11-21T13:51:02;11.10;99.90
27306;DHT22;14792;50.886;6.468;2023-11-21T13:54:03;11.10;99.90
27306;DHT22;14792;50.886;6.468;2023-11-21T13:57:05;11.00;99.90
27306;DHT22;14792;50.886;6.468;2023-11-21T14:00:07;11.00;99.90
27306;DHT22;14792;50.886;6.468;2023-11-21T14:03:08;10.90;99.90
27306;DHT22;14792;50.886;6.468;2023-11-21T14:06:10;10.90;99.90
27306;DHT22;14792;50.886;6.468;2023-11-21T14:09:18;10.90;99.90
27306;DHT22;14792;50.886;6.468;2023-11-21T14:12:24;10.80;99.90
27306;DHT22;14792;50.886;6.468;2023-11-21T14:15:26;10.80;99.90
27306;DHT22;14792;50.886;6.468;2023-11-21T14:18:30;10.70;99.90
27306;DHT22;14792;50.886;6.468;2023-11-21T14:21:32;10.70;99.90
27306;DHT22;14792;50.886;6.468;2023-11-21T14:24:33;10.60;99.90
27306;DHT22;14792;50.886;6.468;2023-11-21T14:27:38;10.60;99.90
27306;DHT22;14792;50.886;6.468;2023-11-21T14:30:40;10.60;99.90
27306;DHT22;14792;50.886;6.468;2023-11-21T14:33:38;10.60;99.90
27306;DHT22;14792;50.886;6.468;2023-11-21T14:36:40;10.60;99.90
27306;DHT22;14792;50.886;6.468;2023-11-21T14:39:41;10.50;99.90
27306;DHT22;14792;50.886;6.468;2023-11-21T14:42:43;10.50;99.90
27306;DHT22;14792;50.886;6.468;2023-11-21T14:49:18;10.50;99.90
27306;DHT22;14792;50.886;6.468;2023-11-21T14:52:20;10.50;99.90
27306;DHT22;14792;50.886;6.468;2023-11-21T14:55:36;10.50;99.90
27306;DHT22;14792;50.886;6.468;2023-11-21T14:58:53;10.50;99.90
27306;DHT22;14792;50.886;6.468;2023-11-21T15:01:54;10.40;99.90
27306;DHT22;14792;50.886;6.468;2023-11-21T15:04:56;10.40;99.90
27306;DHT22;14792;50.886;6.468;2023-11-21T15:07:58;10.40;99.90
27306;DHT22;14792;50.886;6.468;2023-11-21T15:10:59;10.40;99.90
27306;DHT22;14792;50.886;6.468;2023-11-21T15:14:01;10.30;99.90
27306;DHT22;14792;50.886;6.468;2023-11-21T15:17:02;10.40;99.90
27306;DHT22;14792;50.886;6.468;2023-11-21T15:20:04;10.30;99.90
27306;DHT22;14792;50.886;6.468;2023-11-21T15:23:06;10.30;99.90
27306;DHT22;14792;50.886;6.468;2023-11-21T15:26:07;10.30;99.90
27306;DHT22;14792;50.886;6.468;2023-11-21T15:29:09;10.30;99.90
27306;DHT22;14792;50.886;6.468;2023-11-21T15:32:11;10.30;99.90
27306;DHT22;14792;50.886;6.468;2023-11-21T15:35:12;10.30;99.90
27306;DHT22;14792;50.886;6.468;2023-11-21T15:38:14;10.30;99.90
27306;DHT22;14792;50.886;6.468;2023-11-21T15:41:15;10.30;99.90
27306;DHT22;14792;50.886;6.468;2023-11-21T15:44:17;10.30;99.90
27306;DHT22;14792;50.886;6.468;2023-11-21T15:47:18;10.20;99.90
27306;DHT22;14792;50.886;6.468;2023-11-21T15:50:21;10.20;99.90
27306;DHT22;14792;50.886;6.468;2023-11-21T15:53:23;10.10;99.90
27306;DHT22;14792;50.886;6.468;2023-11-21T15:56:24;10.20;99.90
27306;DHT22;14792;50.886;6.468;2023-11-21T15:59:26;10.20;99.90
27306;DHT22;14792;50.886;6.468;2023-11-21T16:02:27;10.10;99.90
27306;DHT22;14792;50.886;6.468;2023-11-21T16:05:29;10.10;99.90
27306;DHT22;14792;50.886;6.468;2023-11-21T16:08:31;10.10;99.90
27306;DHT22;14792;50.886;6.468;2023-11-21T16:11:32;10.00;99.90
27306;DHT22;14792;50.886;6.468;2023-11-21T16:14:35;9.90;99.90
27306;DHT22;14792;50.886;6.468;2023-11-21T16:17:35;9.80;99.90
27306;DHT22;14792;50.886;6.468;2023-11-21T16:20:37;9.80;99.90
27306;DHT22;14792;50.886;6.468;2023-11-21T16:23:39;9.80;99.90
27306;DHT22;14792;50.886;6.468;2023-11-21T16:26:43;9.70;99.90
27306;DHT22;14792;50.886;6.468;2023-11-21T16:29:45;9.70;99.90
27306;DHT22;14792;50.886;6.468;2023-11-21T16:32:46;9.60;99.90
27306;DHT22;14792;50.886;6.468;2023-11-21T16:35:48;9.60;99.90
27306;DHT22;14792;50.886;6.468;2023-11-21T16:38:49;9.60;99.90
27306;DHT22;14792;50.886;6.468;2023-11-21T16:41:52;9.60;99.90
27306;DHT22;14792;50.886;6.468;2023-11-21T16:44:53;9.60;99.90
27306;DHT22;14792;50.886;6.468;2023-11-21T16:47:54;9.60;99.90
27306;DHT22;14792;50.886;6.468;2023-11-21T16:50:56;9.60;99.90
27306;DHT22;14792;50.886;6.468;2023-11-21T16:53:58;9.60;99.90
27306;DHT22;14792;50.886;6.468;2023-11-21T16:56:59;9.50;99.90
27306;DHT22;14792;50.886;6.468;2023-11-21T17:00:01;9.50;99.90
27306;DHT22;14792;50.886;6.468;2023-11-21T17:03:02;9.50;99.90
27306;DHT22;14792;50.886;6.468;2023-11-21T17:06:04;9.50;99.90
27306;DHT22;14792;50.886;6.468;2023-11-21T17:09:05;9.50;99.90
27306;DHT22;14792;50.886;6.468;2023-11-21T17:12:07;9.50;99.90
27306;DHT22;14792;50.886;6.468;2023-11-21T17:15:09;9.50;99.90
27306;DHT22;14792;50.886;6.468;2023-11-21T17:18:10;9.50;99.90
27306;DHT22;14792;50.886;6.468;2023-11-21T17:21:12;9.40;99.90
27306;DHT22;14792;50.886;6.468;2023-11-21T17:24:13;9.40;99.90
27306;DHT22;14792;50.886;6.468;2023-11-21T17:27:15;9.40;99.90
27306;DHT22;14792;50.886;6.468;2023-11-21T17:30:17;9.40;99.90
27306;DHT22;14792;50.886;6.468;2023-11-21T17:33:18;9.40;99.90
27306;DHT22;14792;50.886;6.468;2023-11-21T17:36:20;9.30;99.90
27306;DHT22;14792;50.886;6.468;2023-11-21T17:39:22;9.30;99.90
27306;DHT22;14792;50.886;6.468;2023-11-21T17:42:23;9.30;99.90
27306;DHT22;14792;50.886;6.468;2023-11-21T17:45:25;9.30;99.90
27306;DHT22;14792;50.886;6.468;2023-11-21T17:48:26;9.30;99.90
27306;DHT22;14792;50.886;6.468;2023-11-21T17:51:28;9.20;99.90
27306;DHT22;14792;50.886;6.468;2023-11-21T17:54:30;9.20;99.90
27306;DHT22;14792;50.886;6.468;2023-11-21T17:57:34;9.10;99.90
27306;DHT22;14792;50.886;6.468;2023-11-21T18:00:36;9.10;99.90
27306;DHT22;14792;50.886;6.468;2023-11-21T18:03:37;9.10;99.90
27306;DHT22;14792;50.886;6.468;2023-11-21T18:06:39;9.10;99.90
27306;DHT22;14792;50.886;6.468;2023-11-21T18:09:40;9.00;99.90
27306;DHT22;14792;50.886;6.468;2023-11-21T18:12:42;9.00;99.90
27306;DHT22;14792;50.886;6.468;2023-11-21T18:15:43;9.00;99.90
27306;DHT22;14792;50.886;6.468;2023-11-21T18:18:45;9.00;99.90
27306;DHT22;14792;50.886;6.468;2023-11-21T18:21:47;8.90;99.90
27306;DHT22;14792;50.886;6.468;2023-11-21T18:24:48;8.80;99.90
27306;DHT22;14792;50.886;6.468;2023-11-21T18:27:50;8.70;99.90
27306;DHT22;14792;50.886;6.468;2023-11-21T18:34:49;8.70;99.90
27306;DHT22;14792;50.886;6.468;2023-11-21T18:37:54;8.60;99.90
27306;DHT22;14792;50.886;6.468;2023-11-21T18:40:55;8.60;99.90
27306;DHT22;14792;50.886;6.468;2023-11-21T18:43:57;8.60;99.90
27306;DHT22;14792;50.886;6.468;2023-11-21T18:46:58;8.50;99.90
27306;DHT22;14792;50.886;6.468;2023-11-21T18:50:00;8.40;99.90
27306;DHT22;14792;50.886;6.468;2023-11-21T18:53:01;8.30;99.90
27306;DHT22;14792;50.886;6.468;2023-11-21T18:56:03;8.20;99.90
27306;DHT22;14792;50.886;6.468;2023-11-21T18:59:05;8.10;99.90
27306;DHT22;14792;50.886;6.468;2023-11-21T19:02:06;8.00;99.90
27306;DHT22;14792;50.886;6.468;2023-11-21T19:05:08;8.00;99.90
27306;DHT22;14792;50.886;6.468;2023-11-21T19:08:09;8.00;99.90
27306;DHT22;14792;50.886;6.468;2023-11-21T19:11:11;7.90;99.90
27306;DHT22;14792;50.886;6.468;2023-11-21T19:14:13;7.80;99.90
27306;DHT22;14792;50.886;6.468;2023-11-21T19:17:14;7.80;99.90
27306;DHT22;14792;50.886;6.468;2023-11-21T19:20:16;7.70;99.90
27306;DHT22;14792;50.886;6.468;2023-11-21T19:23:17;7.60;99.90
27306;DHT22;14792;50.886;6.468;2023-11-21T19:26:19;7.60;99.90
27306;DHT22;14792;50.886;6.468;2023-11-21T19:29:20;7.60;99.90
27306;DHT22;14792;50.886;6.468;2023-11-21T19:32:22;7.50;99.90
27306;DHT22;14792;50.886;6.468;2023-11-21T19:35:24;7.50;99.90
27306;DHT22;14792;50.886;6.468;2023-11-21T19:38:25;7.50;99.90
27306;DHT22;14792;50.886;6.468;2023-11-21T19:41:27;7.40;99.90
27306;DHT22;14792;50.886;6.468;2023-11-21T19:44:28;7.40;99.90
27306;DHT22;14792;50.886;6.468;2023-11-21T19:47:30;7.50;99.90
27306;DHT22;14792;50.886;6.468;2023-11-21T19:50:32;7.40;99.90
27306;DHT22;14792;50.886;6.468;2023-11-21T19:53:33;7.40;99.90
27306;DHT22;14792;50.886;6.468;2023-11-21T19:56:38;7.40;99.90
27306;DHT22;14792;50.886;6.468;2023-11-21T19:59:39;7.30;99.90
27306;DHT22;14792;50.886;6.468;2023-11-21T20:02:41;7.30;99.90
27306;DHT22;14792;50.886;6.468;2023-11-21T20:05:43;7.30;99.90
27306;DHT22;14792;50.886;6.468;2023-11-21T20:08:44;7.30;99.90
27306;DHT22;14792;50.886;6.468;2023-11-21T20:11:46;7.30;99.90
27306;DHT22;14792;50.886;6.468;2023-11-21T20:14:47;7.20;99.90
27306;DHT22;14792;50.886;6.468;2023-11-21T20:17:49;7.20;99.90